Time;durP1;ratioP1;P1;durP2;ratioP2;P2;SDS_P1;SDS_P2;PMS_P1;PMS_P2;Temp;Humidity;BMP_temperature;BMP_pressure;BME280_temperature;BME280_humidity;BME280_pressure;Samples;Min_cycle;Max_cycle;Signal;HPM_P1;HPM_P2
2021/03/19 00:00:10;;;;;;;10.30;4.78;;;3.10;90.00;;;;;;5032016;28;20041;-55
2021/03/19 00:02:37;;;;;;;9.55;4.65;;;3.00;89.80;;;;;;5031319;28;20072;-53
2021/03/19 00:05:06;;;;;;;8.98;4.57;;;2.90;90.00;;;;;;5031700;28;20065;-54
2021/03/19 00:07:44;;;;;;;13.07;4.45;;;2.90;90.20;;;;;;5027236;28;20413;-53
2021/03/19 00:10:12;;;;;;;17.60;4.82;;;2.80;90.40;;;;;;5032146;28;20049;-52
2021/03/19 00:12:38;;;;;;;11.68;4.03;;;2.90;90.30;;;;;;5034404;28;20041;-55
2021/03/19 00:15:04;;;;;;;11.60;4.40;;;2.80;90.30;;;;;;5031487;28;20132;-52
2021/03/19 00:17:30;;;;;;;9.07;4.15;;;2.80;90.40;;;;;;5028252;28;20072;-54
2021/03/19 00:19:56;;;;;;;11.18;4.28;;;2.70;90.40;;;;;;5031544;28;20053;-54
2021/03/19 00:22:22;;;;;;;9.10;4.40;;;2.60;90.50;;;;;;5031146;28;20054;-54
2021/03/19 00:24:48;;;;;;;9.00;4.15;;;2.60;90.50;;;;;;5014225;28;20041;-52
2021/03/19 00:27:14;;;;;;;14.23;4.93;;;2.60;90.50;;;;;;5024942;28;20088;-50
2021/03/19 00:29:40;;;;;;;8.88;4.30;;;2.60;90.60;;;;;;5028227;28;20304;-52
2021/03/19 00:32:06;;;;;;;14.48;4.40;;;2.60;90.60;;;;;;5043508;28;20042;-53
2021/03/19 00:34:31;;;;;;;7.78;4.03;;;2.60;90.50;;;;;;5039716;28;20037;-53
2021/03/19 00:36:57;;;;;;;9.60;4.03;;;2.50;90.60;;;;;;5037075;28;20103;-53
2021/03/19 00:39:23;;;;;;;12.05;4.10;;;2.50;90.70;;;;;;5031677;28;20429;-52
2021/03/19 00:41:49;;;;;;;9.05;4.03;;;2.40;90.70;;;;;;5031036;28;20068;-54
2021/03/19 00:44:17;;;;;;;12.90;4.18;;;2.40;90.70;;;;;;5034956;28;20044;-54
2021/03/19 00:46:43;;;;;;;11.70;4.30;;;2.50;90.70;;;;;;5035544;28;20041;-54
2021/03/19 00:49:09;;;;;;;9.32;4.18;;;2.50;90.80;;;;;;5030519;28;20048;-50
2021/03/19 00:51:35;;;;;;;13.35;4.57;;;2.50;90.60;;;;;;5019641;28;20045;-53
2021/03/19 00:54:00;;;;;;;13.90;4.72;;;2.60;90.60;;;;;;5030518;28;20136;-50
2021/03/19 00:56:26;;;;;;;12.02;3.92;;;2.60;90.40;;;;;;5025717;28;20502;-53
2021/03/19 00:58:52;;;;;;;13.85;4.18;;;2.50;90.40;;;;;;5030463;28;20041;-52
2021/03/19 01:01:18;;;;;;;11.60;3.95;;;2.40;90.60;;;;;;5034869;28;20082;-53
2021/03/19 01:03:44;;;;;;;10.07;3.67;;;2.40;90.50;;;;;;5040932;28;20116;-53
2021/03/19 01:06:10;;;;;;;9.93;3.97;;;2.60;90.30;;;;;;5010925;28;20107;-52
2021/03/19 01:08:36;;;;;;;12.23;3.75;;;2.50;90.50;;;;;;5012798;28;20041;-50
2021/03/19 01:11:03;;;;;;;9.95;3.78;;;2.50;90.40;;;;;;5030480;28;20049;-52
2021/03/19 01:13:28;;;;;;;10.60;3.70;;;2.40;90.60;;;;;;5030493;28;20049;-53
2021/03/19 01:15:55;;;;;;;14.25;4.05;;;2.40;90.80;;;;;;5030112;28;20037;-52
2021/03/19 01:18:23;;;;;;;10.73;4.20;;;2.40;90.50;;;;;;5010285;28;20049;-55
2021/03/19 01:20:50;;;;;;;10.15;3.88;;;2.40;90.70;;;;;;5029423;28;20041;-54
2021/03/19 01:23:17;;;;;;;13.75;4.07;;;2.30;90.50;;;;;;5030597;28;20044;-54
2021/03/19 01:25:44;;;;;;;17.40;3.83;;;2.40;90.60;;;;;;5030996;28;20262;-54
2021/03/19 01:28:10;;;;;;;11.95;3.42;;;2.40;90.50;;;;;;5029823;28;20061;-54
2021/03/19 01:30:39;;;;;;;14.00;3.35;;;2.30;90.40;;;;;;5027861;28;20068;-53
2021/03/19 01:33:06;;;;;;;11.48;3.63;;;2.30;90.60;;;;;;5026096;28;20148;-54
2021/03/19 01:35:34;;;;;;;11.93;3.72;;;2.20;90.70;;;;;;5025924;28;20044;-56
2021/03/19 01:38:00;;;;;;;13.23;4.38;;;2.20;90.80;;;;;;5029790;28;20090;-56
2021/03/19 01:40:31;;;;;;;11.52;3.90;;;2.10;90.80;;;;;;5029869;28;20087;-55
2021/03/19 01:43:35;;;;;;;8.73;3.30;;;2.10;90.90;;;;;;5013025;28;20037;-55
2021/03/19 01:46:38;;;;;;;12.07;4.32;;;2.20;91.00;;;;;;5024911;28;20129;-56
2021/03/19 01:49:41;;;;;;;8.80;3.55;;;2.20;90.70;;;;;;5028391;28;20050;-55
2021/03/19 01:52:44;;;;;;;10.88;3.75;;;2.20;90.80;;;;;;5029620;28;20072;-55
2021/03/19 01:55:47;;;;;;;11.45;3.78;;;2.10;90.70;;;;;;5019532;28;20033;-54
2021/03/19 01:58:50;;;;;;;9.18;3.47;;;2.10;90.80;;;;;;5029262;28;20034;-51
2021/03/19 02:01:34;;;;;;;;;;;2.00;90.80;;;;;;5029983;28;20506;-54
2021/03/19 02:04:38;;;;;;;18.60;4.18;;;2.10;90.90;;;;;;5028589;28;19921;-54
2021/03/19 02:07:22;;;;;;;;;;;2.00;90.80;;;;;;5023578;28;20037;-54
2021/03/19 02:10:25;;;;;;;9.95;3.03;;;2.00;91.00;;;;;;5031715;28;19925;-53
2021/03/19 02:13:28;;;;;;;14.18;3.35;;;2.00;91.00;;;;;;5026706;28;20041;-55
2021/03/19 02:16:31;;;;;;;10.48;4.13;;;1.90;91.00;;;;;;5026030;28;20049;-54
2021/03/19 02:19:34;;;;;;;11.27;4.07;;;2.00;91.20;;;;;;5033367;28;20041;-55
2021/03/19 02:22:40;;;;;;;10.55;3.67;;;1.90;91.00;;;;;;5034730;28;20041;-54
2021/03/19 02:25:25;;;;;;;;;;;1.80;91.20;;;;;;5021191;28;20048;-52
2021/03/19 02:28:29;;;;;;;10.80;3.65;;;1.80;91.50;;;;;;5025242;28;19921;-53
2021/03/19 02:31:12;;;;;;;10.30;3.80;;;1.80;91.30;;;;;;5027946;28;20045;-54
2021/03/19 02:33:59;;;;;;;10.45;3.55;;;1.80;91.40;;;;;;5032733;28;20048;-54
2021/03/19 02:36:27;;;;;;;11.13;3.88;;;1.80;91.30;;;;;;5015516;28;20099;-54
2021/03/19 02:38:54;;;;;;;14.82;4.03;;;1.90;91.30;;;;;;5033371;28;20044;-54
2021/03/19 02:41:22;;;;;;;16.67;4.25;;;1.80;91.30;;;;;;5033315;28;20494;-51
2021/03/19 02:43:48;;;;;;;12.07;3.67;;;1.80;91.50;;;;;;5036440;28;20541;-55
2021/03/19 02:46:14;;;;;;;9.68;3.67;;;1.80;91.40;;;;;;5032499;28;20160;-55
2021/03/19 02:48:40;;;;;;;10.30;4.15;;;1.80;91.60;;;;;;5032981;28;20061;-55
2021/03/19 02:51:06;;;;;;;9.20;3.58;;;1.80;91.40;;;;;;5021789;28;20041;-54
2021/03/19 02:53:35;;;;;;;12.68;4.25;;;1.80;91.50;;;;;;5033120;28;20509;-53
2021/03/19 02:56:03;;;;;;;12.05;3.55;;;1.70;91.50;;;;;;5021053;28;20048;-54
2021/03/19 02:58:29;;;;;;;16.15;4.05;;;1.70;91.70;;;;;;5033055;28;20068;-54
2021/03/19 03:00:55;;;;;;;9.98;3.97;;;1.60;91.60;;;;;;5031140;28;20049;-53
2021/03/19 03:03:21;;;;;;;11.57;3.85;;;1.60;91.70;;;;;;5022547;28;20410;-53
2021/03/19 03:05:47;;;;;;;14.20;3.97;;;1.70;91.70;;;;;;5032852;28;20048;-54
2021/03/19 03:08:16;;;;;;;15.45;3.90;;;1.70;91.80;;;;;;5021358;28;20048;-53
2021/03/19 03:10:43;;;;;;;15.43;4.63;;;1.60;91.80;;;;;;5032690;28;20057;-54
2021/03/19 03:13:10;;;;;;;13.40;3.47;;;1.60;91.80;;;;;;5032775;28;20041;-54
2021/03/19 03:15:36;;;;;;;16.08;4.13;;;1.60;91.80;;;;;;5032720;28;20454;-52
2021/03/19 03:18:03;;;;;;;14.27;3.85;;;1.60;91.70;;;;;;5014640;28;20060;-55
2021/03/19 03:20:33;;;;;;;17.33;3.75;;;1.60;91.90;;;;;;5030992;28;20565;-54
2021/03/19 03:22:59;;;;;;;11.35;4.25;;;1.60;91.80;;;;;;5031373;28;20073;-54
2021/03/19 03:25:26;;;;;;;13.98;4.05;;;1.50;91.80;;;;;;5032980;28;20061;-51
2021/03/19 03:27:53;;;;;;;12.77;3.88;;;1.50;92.00;;;;;;5032372;28;20125;-53
2021/03/19 03:30:51;;;;;;;10.07;3.70;;;1.50;91.90;;;;;;5031786;28;20045;-51
2021/03/19 03:33:17;;;;;;;12.25;4.18;;;1.50;92.00;;;;;;5031496;28;20526;-54
2021/03/19 03:35:44;;;;;;;11.80;4.00;;;1.40;91.90;;;;;;5032135;28;20136;-53
2021/03/19 03:38:14;;;;;;;10.60;4.00;;;1.40;91.90;;;;;;5032488;28;20057;-54
2021/03/19 03:40:48;;;;;;;11.02;3.92;;;1.30;92.00;;;;;;5031377;28;20125;-51
2021/03/19 03:43:18;;;;;;;14.23;4.45;;;1.40;92.10;;;;;;5032289;28;20045;-54
2021/03/19 03:45:44;;;;;;;15.82;4.20;;;1.50;92.00;;;;;;5032248;28;20049;-50
2021/03/19 03:48:13;;;;;;;14.60;4.63;;;1.50;92.00;;;;;;5032467;28;20137;-52
2021/03/19 03:50:41;;;;;;;13.45;4.35;;;1.50;92.00;;;;;;5030460;28;20133;-50
2021/03/19 03:53:10;;;;;;;12.88;4.15;;;1.60;92.00;;;;;;5026350;28;20046;-54
2021/03/19 03:55:38;;;;;;;13.13;4.82;;;1.60;92.10;;;;;;5031841;28;20490;-51
2021/03/19 03:58:05;;;;;;;12.75;4.22;;;1.60;92.00;;;;;;5030251;28;20489;-51
2021/03/19 04:00:32;;;;;;;14.98;4.60;;;1.60;92.10;;;;;;5031785;28;20061;-53
2021/03/19 04:03:03;;;;;;;12.48;4.45;;;1.50;92.10;;;;;;5023985;28;20053;-53
2021/03/19 04:05:35;;;;;;;15.02;4.72;;;1.50;92.20;;;;;;5031592;28;20061;-52
2021/03/19 04:08:02;;;;;;;11.32;4.28;;;1.50;92.10;;;;;;5027479;28;20136;-53
2021/03/19 04:10:29;;;;;;;16.85;4.38;;;1.40;92.10;;;;;;5029971;28;20136;-52
2021/03/19 04:12:55;;;;;;;12.27;4.32;;;1.50;92.10;;;;;;5028557;28;20536;-53
2021/03/19 04:15:23;;;;;;;15.68;4.53;;;1.40;92.10;;;;;;5023448;28;20128;-54
2021/03/19 04:17:53;;;;;;;13.77;4.35;;;1.40;92.20;;;;;;5026000;28;20124;-54
2021/03/19 04:20:19;;;;;;;12.98;4.22;;;1.40;92.10;;;;;;5026265;28;20053;-52
2021/03/19 04:22:46;;;;;;;9.30;3.88;;;1.40;92.40;;;;;;5022840;28;20053;-56
2021/03/19 04:25:13;;;;;;;14.00;4.22;;;1.40;92.30;;;;;;5032278;28;20041;-53
2021/03/19 04:27:46;;;;;;;13.32;4.72;;;1.40;92.20;;;;;;5031102;28;20121;-52
2021/03/19 04:30:19;;;;;;;12.73;4.47;;;1.40;92.30;;;;;;5018470;28;20045;-54
2021/03/19 04:32:46;;;;;;;13.23;4.10;;;1.40;92.20;;;;;;5013733;28;20072;-53
2021/03/19 04:35:13;;;;;;;16.67;4.95;;;1.40;92.30;;;;;;4991576;28;20095;-53
2021/03/19 04:37:39;;;;;;;14.70;5.03;;;1.50;92.30;;;;;;5028707;28;20108;-53
2021/03/19 04:40:07;;;;;;;10.35;3.92;;;1.50;92.30;;;;;;5018916;28;20141;-52
2021/03/19 04:42:33;;;;;;;14.68;4.15;;;1.40;92.20;;;;;;5029325;28;20133;-51
2021/03/19 04:45:00;;;;;;;19.88;4.28;;;1.40;92.30;;;;;;5015083;28;20064;-50
2021/03/19 04:47:26;;;;;;;15.63;4.30;;;1.30;92.30;;;;;;5030199;28;20109;-53
2021/03/19 04:49:53;;;;;;;13.85;4.40;;;1.30;92.30;;;;;;5011229;28;20482;-51
2021/03/19 04:52:19;;;;;;;15.05;4.38;;;1.30;92.20;;;;;;5030123;28;20053;-51
2021/03/19 04:54:45;;;;;;;13.50;4.50;;;1.30;92.20;;;;;;5029673;28;20124;-54
2021/03/19 04:57:12;;;;;;;14.02;4.50;;;1.30;92.20;;;;;;5030120;28;20094;-53
2021/03/19 04:59:38;;;;;;;13.15;4.10;;;1.30;92.30;;;;;;5025781;28;20135;-51
2021/03/19 05:02:04;;;;;;;14.70;4.80;;;1.30;92.30;;;;;;5020362;28;20049;-53
2021/03/19 05:04:30;;;;;;;13.30;5.20;;;1.40;92.20;;;;;;5024152;28;20128;-51
2021/03/19 05:07:02;;;;;;;10.68;4.25;;;1.40;92.20;;;;;;5012727;28;20041;-51
2021/03/19 05:09:29;;;;;;;14.77;4.85;;;1.40;92.30;;;;;;5027744;28;20041;-50
2021/03/19 05:11:55;;;;;;;12.10;4.38;;;1.40;92.30;;;;;;5022125;28;20164;-51
2021/03/19 05:14:23;;;;;;;13.32;4.60;;;1.40;92.20;;;;;;5006087;28;20548;-55
2021/03/19 05:16:49;;;;;;;10.95;4.28;;;1.30;92.40;;;;;;5025467;28;20128;-52
2021/03/19 05:19:16;;;;;;;15.00;4.53;;;1.30;92.50;;;;;;5027912;28;20140;-51
2021/03/19 05:21:43;;;;;;;15.40;4.78;;;1.30;92.40;;;;;;5007193;28;20081;-51
2021/03/19 05:24:11;;;;;;;14.95;4.78;;;1.30;92.60;;;;;;5008456;28;20526;-54
2021/03/19 05:26:39;;;;;;;18.13;5.13;;;1.30;92.50;;;;;;5022080;28;20710;-53
2021/03/19 05:29:08;;;;;;;17.42;5.25;;;1.20;92.40;;;;;;5027796;28;20048;-52
2021/03/19 05:31:34;;;;;;;9.52;4.40;;;1.20;92.40;;;;;;5020566;28;20073;-53
2021/03/19 05:34:01;;;;;;;12.73;4.82;;;1.20;92.50;;;;;;5016021;28;20083;-53
2021/03/19 05:36:29;;;;;;;13.90;4.72;;;1.20;92.50;;;;;;5029798;28;20049;-54
2021/03/19 05:38:55;;;;;;;10.60;4.30;;;1.20;92.40;;;;;;5029224;28;20085;-54
2021/03/19 05:41:28;;;;;;;14.20;4.90;;;1.20;92.30;;;;;;5027007;28;20049;-55
2021/03/19 05:44:05;;;;;;;10.75;4.10;;;1.10;92.40;;;;;;5030015;28;20124;-52
2021/03/19 05:46:35;;;;;;;16.10;5.10;;;1.20;92.30;;;;;;5029602;28;20072;-54
2021/03/19 05:49:09;;;;;;;15.93;4.57;;;1.10;92.30;;;;;;5028534;28;20144;-52
2021/03/19 05:51:43;;;;;;;15.45;4.97;;;1.10;92.30;;;;;;5036369;28;20132;-51
2021/03/19 05:54:29;;;;;;;11.77;4.70;;;1.00;92.30;;;;;;5030305;28;20095;-53
2021/03/19 05:57:04;;;;;;;15.80;5.00;;;1.00;92.40;;;;;;5029801;28;20486;-53
2021/03/19 05:59:32;;;;;;;15.63;4.90;;;1.00;92.40;;;;;;5029543;28;20466;-54
2021/03/19 06:01:58;;;;;;;14.23;4.72;;;1.00;92.40;;;;;;5027812;28;20568;-55
2021/03/19 06:04:28;;;;;;;17.48;4.55;;;1.00;92.40;;;;;;5011080;28;20129;-54
2021/03/19 06:07:03;;;;;;;16.15;5.03;;;1.00;92.30;;;;;;5019139;28;20077;-54
2021/03/19 06:09:39;;;;;;;13.65;4.63;;;0.90;92.40;;;;;;5029463;28;20088;-54
2021/03/19 06:12:18;;;;;;;13.75;4.70;;;1.00;92.40;;;;;;5023219;28;20053;-54
2021/03/19 06:14:54;;;;;;;12.93;4.90;;;1.00;92.40;;;;;;5016793;28;20108;-55
2021/03/19 06:17:34;;;;;;;17.17;5.10;;;1.00;92.40;;;;;;5027195;28;20056;-54
2021/03/19 06:20:00;;;;;;;12.15;4.50;;;1.00;92.40;;;;;;5027908;28;20085;-54
2021/03/19 06:22:56;;;;;;;15.30;5.25;;;1.00;92.40;;;;;;5020957;28;20145;-54
2021/03/19 06:25:55;;;;;;;16.17;4.95;;;1.00;92.30;;;;;;5022035;28;20494;-52
2021/03/19 06:28:45;;;;;;;14.98;5.13;;;1.10;92.30;;;;;;5004919;28;20406;-54
2021/03/19 06:31:32;;;;;;;14.93;4.45;;;1.10;92.30;;;;;;5009211;28;20052;-53
2021/03/19 06:34:04;;;;;;;12.23;5.40;;;1.10;92.20;;;;;;5029125;28;20045;-52
2021/03/19 06:36:30;;;;;;;14.10;5.30;;;1.10;92.30;;;;;;5008307;28;20053;-52
2021/03/19 06:39:30;;;;;;;15.27;6.35;;;1.10;92.30;;;;;;4999535;28;20103;-53
2021/03/19 06:42:18;;;;;;;24.20;6.70;;;1.20;92.60;;;;;;5011138;28;20050;-51
2021/03/19 06:45:23;;;;;;;23.40;6.82;;;1.30;92.60;;;;;;5010892;28;20143;-50
2021/03/19 06:48:36;;;;;;;21.20;6.82;;;1.40;92.60;;;;;;5002106;28;20069;-53
2021/03/19 06:51:35;;;;;;;19.25;6.18;;;1.40;92.70;;;;;;5011768;28;20514;-50
2021/03/19 06:54:24;;;;;;;16.52;5.78;;;1.50;92.70;;;;;;5001513;28;20373;-52
2021/03/19 06:57:15;;;;;;;15.15;6.18;;;1.50;93.20;;;;;;5001858;28;20427;-50
2021/03/19 07:00:02;;;;;;;21.63;6.07;;;1.60;93.00;;;;;;4992161;28;20050;-54
2021/03/19 07:02:58;;;;;;;19.30;6.32;;;1.70;93.00;;;;;;5004597;28;20124;-53
2021/03/19 07:06:03;;;;;;;15.18;6.25;;;1.70;92.80;;;;;;5004806;28;20497;-53
2021/03/19 07:09:11;;;;;;;16.27;5.82;;;1.90;93.10;;;;;;5004014;28;20482;-50
2021/03/19 07:11:40;;;;;;;12.77;5.70;;;1.90;92.90;;;;;;5017583;28;20060;-53
2021/03/19 07:14:32;;;;;;;15.75;5.82;;;2.10;92.70;;;;;;5004707;28;20490;-50
2021/03/19 07:17:49;;;;;;;14.50;5.78;;;2.20;92.70;;;;;;5007567;28;20057;-53
2021/03/19 07:20:36;;;;;;;14.82;5.55;;;2.50;93.00;;;;;;5019723;28;20038;-53
2021/03/19 07:23:19;;;;;;;16.27;5.68;;;2.70;92.50;;;;;;5021662;28;20124;-51
2021/03/19 07:26:27;;;;;;;16.33;5.85;;;2.70;92.60;;;;;;5011051;28;20436;-54
2021/03/19 07:29:49;;;;;;;15.25;6.28;;;2.80;92.70;;;;;;5018192;28;20046;-54
2021/03/19 07:32:36;;;;;;;20.45;6.40;;;2.80;92.50;;;;;;5025644;28;20041;-52
2021/03/19 07:35:44;;;;;;;19.33;6.20;;;3.00;92.40;;;;;;5026965;28;20122;-54
2021/03/19 07:39:06;;;;;;;13.80;5.90;;;3.10;92.50;;;;;;5007159;28;20140;-53
2021/03/19 07:42:06;;;;;;;16.27;5.72;;;3.10;92.40;;;;;;5005382;28;20056;-52
2021/03/19 07:45:10;;;;;;;15.65;5.45;;;3.30;92.10;;;;;;5009804;28;20038;-52
2021/03/19 07:48:35;;;;;;;17.33;5.93;;;3.50;92.00;;;;;;5003480;28;20045;-54
2021/03/19 07:51:30;;;;;;;14.60;5.82;;;3.70;91.90;;;;;;5010384;28;20402;-52
2021/03/19 07:54:48;;;;;;;16.58;5.57;;;3.90;91.70;;;;;;5008840;28;20041;-51
2021/03/19 07:57:48;;;;;;;15.13;5.70;;;4.00;91.40;;;;;;5009355;28;20056;-53
2021/03/19 08:00:38;;;;;;;14.48;5.07;;;4.20;91.10;;;;;;5016260;28;20048;-50
2021/03/19 08:03:31;;;;;;;13.23;4.88;;;4.30;91.10;;;;;;5011193;28;20174;-52
2021/03/19 08:06:25;;;;;;;10.18;4.45;;;4.40;90.10;;;;;;5014053;28;20037;-53
2021/03/19 08:10:00;;;;;;;8.82;4.35;;;4.50;88.70;;;;;;5003812;28;20045;-52
2021/03/19 08:12:59;;;;;;;10.15;4.90;;;4.70;88.90;;;;;;4933881;28;20056;-50
2021/03/19 08:15:58;;;;;;;11.07;4.90;;;4.80;89.50;;;;;;5005411;28;20129;-51
2021/03/19 08:19:03;;;;;;;16.00;5.28;;;5.00;86.50;;;;;;5021362;28;20053;-54
2021/03/19 08:21:53;;;;;;;10.05;4.45;;;5.10;85.50;;;;;;5035414;28;20131;-49
2021/03/19 08:24:43;;;;;;;12.23;5.05;;;5.20;85.90;;;;;;5034819;28;20089;-52
2021/03/19 08:27:41;;;;;;;11.32;4.43;;;5.40;83.30;;;;;;5012480;28;20506;-49
2021/03/19 08:30:36;;;;;;;13.80;4.65;;;5.40;82.80;;;;;;5014653;28;20041;-50
2021/03/19 08:33:55;;;;;;;9.75;4.22;;;5.40;82.00;;;;;;5004853;28;20107;-51
2021/03/19 08:36:54;;;;;;;10.20;4.05;;;5.50;81.80;;;;;;5006262;28;20129;-53
2021/03/19 08:39:43;;;;;;;12.43;4.10;;;5.60;78.80;;;;;;5021456;28;20046;-53
2021/03/19 08:42:37;;;;;;;12.52;4.80;;;5.70;78.30;;;;;;5010640;28;20045;-50
2021/03/19 08:45:26;;;;;;;9.68;4.10;;;5.70;78.10;;;;;;5015693;28;20053;-51
2021/03/19 08:48:16;;;;;;;9.30;4.47;;;5.70;79.80;;;;;;5020446;28;20072;-52
2021/03/19 08:51:19;;;;;;;12.15;4.18;;;5.80;79.30;;;;;;5023773;28;20049;-51
2021/03/19 08:54:15;;;;;;;11.13;4.25;;;5.90;79.00;;;;;;5006709;28;20160;-53
2021/03/19 08:57:05;;;;;;;5.72;3.80;;;6.00;76.50;;;;;;5017066;28;20041;-53
2021/03/19 08:59:52;;;;;;;8.18;3.90;;;6.00;75.60;;;;;;5017820;28;20056;-49
2021/03/19 09:02:49;;;;;;;9.77;3.90;;;6.00;74.50;;;;;;5006831;28;20695;-53
2021/03/19 09:05:21;;;;;;;9.23;3.70;;;6.10;74.70;;;;;;5031380;28;20034;-52
2021/03/19 09:08:05;;;;;;;;;;;6.10;75.00;;;;;;5024914;28;20118;-54
2021/03/19 09:10:52;;;;;;;8.70;3.70;;;6.10;74.00;;;;;;5003438;28;19962;-55
2021/03/19 09:13:22;;;;;;;7.57;3.20;;;6.20;73.50;;;;;;5014453;28;20057;-51
2021/03/19 09:15:52;;;;;;;7.63;2.80;;;6.20;70.00;;;;;;5031329;28;20049;-53
2021/03/19 09:18:42;;;;;;;7.38;3.00;;;6.30;68.30;;;;;;5030280;28;20392;-54
2021/03/19 09:21:37;;;;;;;7.53;3.38;;;6.30;68.50;;;;;;5008671;28;20053;-53
2021/03/19 09:24:24;;;;;;;6.78;3.15;;;6.30;69.20;;;;;;5015658;28;20045;-53
2021/03/19 09:27:25;;;;;;;8.15;2.78;;;6.40;69.70;;;;;;5015914;28;20136;-53
2021/03/19 09:30:27;;;;;;;10.15;3.20;;;6.50;67.50;;;;;;5007945;28;20084;-53
2021/03/19 09:33:45;;;;;;;6.32;2.28;;;6.50;67.80;;;;;;5004763;28;20076;-52
2021/03/19 09:36:57;;;;;;;8.43;2.55;;;6.60;64.70;;;;;;5014335;28;20038;-50
2021/03/19 09:40:07;;;;;;;5.90;2.53;;;6.70;65.50;;;;;;5014795;28;20437;-54
2021/03/19 09:42:33;;;;;;;5.05;2.53;;;6.80;64.60;;;;;;5032851;28;20071;-53
2021/03/19 09:44:59;;;;;;;4.85;2.28;;;6.80;64.20;;;;;;5011907;28;20045;-51
2021/03/19 09:47:49;;;;;;;5.25;2.25;;;6.90;61.10;;;;;;5012383;28;20113;-53
2021/03/19 09:50:24;;;;;;;4.40;2.10;;;6.90;60.50;;;;;;5032299;28;20045;-53
2021/03/19 09:53:07;;;;;;;7.80;2.70;;;6.90;62.30;;;;;;5021323;28;20490;-54
2021/03/19 09:55:56;;;;;;;5.93;2.20;;;7.00;62.50;;;;;;4984548;28;20048;-51
2021/03/19 09:58:37;;;;;;;4.53;2.10;;;7.10;60.70;;;;;;5026320;28;20049;-51
2021/03/19 10:01:30;;;;;;;4.38;1.90;;;7.10;60.70;;;;;;5005218;28;20045;-53
2021/03/19 10:04:00;;;;;;;4.28;2.20;;;7.20;61.00;;;;;;5029177;28;20038;-54
2021/03/19 10:06:48;;;;;;;4.00;1.85;;;7.30;61.00;;;;;;5002307;28;20053;-55
2021/03/19 10:09:50;;;;;;;5.55;2.08;;;7.40;59.60;;;;;;5015834;28;20041;-52
2021/03/19 10:12:37;;;;;;;5.93;2.10;;;7.40;59.30;;;;;;5016157;28;20046;-53
2021/03/19 10:15:27;;;;;;;5.13;2.40;;;7.40;59.70;;;;;;5015885;28;20072;-52
2021/03/19 10:18:41;;;;;;;4.30;1.80;;;7.40;59.70;;;;;;5015947;28;20041;-53
2021/03/19 10:21:42;;;;;;;4.43;1.67;;;7.60;57.40;;;;;;5004970;28;20053;-51
2021/03/19 10:24:28;;;;;;;3.60;1.88;;;7.70;57.30;;;;;;5012296;28;20042;-53
2021/03/19 10:27:12;;;;;;;5.93;1.90;;;7.70;59.10;;;;;;5014844;28;20040;-52
2021/03/19 10:29:41;;;;;;;3.53;1.75;;;7.80;59.30;;;;;;5033700;28;20131;-54
2021/03/19 10:32:27;;;;;;;4.18;1.80;;;7.90;57.00;;;;;;5006279;28;20069;-53
2021/03/19 10:35:08;;;;;;;3.42;1.52;;;7.90;57.40;;;;;;5031041;28;20490;-51
2021/03/19 10:38:10;;;;;;;5.95;1.75;;;8.00;56.40;;;;;;5018384;28;20410;-54
2021/03/19 10:41:04;;;;;;;3.40;1.50;;;8.00;57.90;;;;;;5023707;28;20372;-53
2021/03/19 10:44:07;;;;;;;5.80;1.75;;;8.10;58.00;;;;;;4999617;28;20406;-52
2021/03/19 10:46:42;;;;;;;3.50;1.55;;;8.20;58.80;;;;;;5028085;28;20057;-51
2021/03/19 10:49:24;;;;;;;2.22;1.55;;;8.20;57.90;;;;;;5033708;28;20045;-53
2021/03/19 10:52:00;;;;;;;10.13;1.30;;;8.30;55.80;;;;;;5033705;28;20067;-54
2021/03/19 10:54:34;;;;;;;2.70;1.40;;;8.30;55.80;;;;;;5032528;28;20041;-53
2021/03/19 10:57:24;;;;;;;4.30;1.50;;;8.30;56.10;;;;;;5030361;28;20056;-52
2021/03/19 10:59:51;;;;;;;3.25;1.75;;;8.30;57.20;;;;;;5016041;28;20053;-53
2021/03/19 11:02:24;;;;;;;3.50;1.63;;;8.30;57.50;;;;;;5033726;28;20048;-54
2021/03/19 11:04:58;;;;;;;2.90;1.50;;;8.40;58.50;;;;;;5033900;28;20049;-55
2021/03/19 11:07:27;;;;;;;3.05;1.30;;;8.50;55.90;;;;;;5036866;28;20052;-55
2021/03/19 11:09:58;;;;;;;3.20;1.70;;;8.60;56.30;;;;;;5021464;28;20053;-55
2021/03/19 11:12:39;;;;;;;3.55;1.50;;;8.50;56.70;;;;;;5032526;28;20050;-55
2021/03/19 11:15:27;;;;;;;2.00;1.20;;;8.70;55.80;;;;;;5030459;28;20051;-53
2021/03/19 11:18:35;;;;;;;2.88;1.17;;;8.70;53.80;;;;;;5014210;28;20033;-55
2021/03/19 11:21:07;;;;;;;2.45;1.20;;;8.70;55.60;;;;;;5029611;28;20064;-53
2021/03/19 11:23:38;;;;;;;4.15;1.30;;;8.80;53.00;;;;;;5032544;28;20100;-54
2021/03/19 11:26:30;;;;;;;3.00;1.23;;;8.80;54.20;;;;;;5031100;28;20053;-55
2021/03/19 11:29:37;;;;;;;2.55;1.50;;;8.80;55.00;;;;;;5017497;28;20128;-53
2021/03/19 11:32:26;;;;;;;1.92;1.10;;;8.90;55.10;;;;;;5031955;28;20045;-53
2021/03/19 11:34:55;;;;;;;2.30;1.40;;;9.10;54.40;;;;;;5013299;28;20075;-51
2021/03/19 11:37:23;;;;;;;4.30;1.63;;;9.20;55.80;;;;;;5020619;28;20042;-52
2021/03/19 11:40:12;;;;;;;3.22;1.55;;;9.30;56.10;;;;;;5002915;28;20046;-55
2021/03/19 11:42:44;;;;;;;4.60;1.70;;;9.40;53.40;;;;;;5015199;28;20054;-54
2021/03/19 11:45:16;;;;;;;;;;;9.40;54.20;;;;;;5026292;28;20053;-54
2021/03/19 11:47:56;;;;;;;3.47;2.22;;;9.40;54.50;;;;;;5042570;28;20056;-54
2021/03/19 11:50:23;;;;;;;2.20;1.08;;;9.50;54.50;;;;;;5027714;28;20413;-54
2021/03/19 11:52:54;;;;;;;1.92;1.00;;;9.50;51.20;;;;;;5028948;28;20048;-54
2021/03/19 11:55:25;;;;;;;2.33;1.20;;;9.40;51.60;;;;;;5023482;28;20045;-54
2021/03/19 11:57:51;;;;;;;2.83;1.20;;;9.40;52.30;;;;;;5030930;28;20042;-54
2021/03/19 12:00:20;;;;;;;1.95;1.20;;;9.20;55.00;;;;;;5025982;28;20034;-56
2021/03/19 12:02:49;;;;;;;2.38;1.20;;;9.30;53.20;;;;;;5015178;28;20052;-50
2021/03/19 12:05:15;;;;;;;1.98;1.20;;;9.30;52.80;;;;;;5010740;28;20041;-52
2021/03/19 12:07:41;;;;;;;2.28;1.50;;;9.40;53.90;;;;;;5018151;28;20037;-51
2021/03/19 12:10:29;;;;;;;3.00;1.35;;;9.40;55.40;;;;;;5008472;28;20042;-55
2021/03/19 12:13:16;;;;;;;3.08;1.35;;;9.60;52.50;;;;;;5028075;28;20042;-53
2021/03/19 12:16:03;;;;;;;2.78;1.20;;;9.60;51.40;;;;;;5012672;28;20037;-56
2021/03/19 12:18:31;;;;;;;1.63;1.13;;;9.50;52.10;;;;;;5033326;28;20052;-54
2021/03/19 12:20:58;;;;;;;2.45;1.10;;;9.40;53.30;;;;;;5021538;28;20108;-53
2021/03/19 12:23:25;;;;;;;1.38;0.93;;;9.40;52.20;;;;;;5005295;28;20034;-55
2021/03/19 12:25:51;;;;;;;1.98;1.13;;;9.30;51.50;;;;;;5031945;28;20048;-53
2021/03/19 12:28:20;;;;;;;1.83;1.02;;;9.30;52.30;;;;;;5023665;28;20034;-54
2021/03/19 12:30:46;;;;;;;1.65;1.17;;;9.30;53.20;;;;;;5024151;28;20045;-55
2021/03/19 12:33:35;;;;;;;1.88;0.93;;;9.30;52.60;;;;;;5012845;28;20076;-52
2021/03/19 12:36:02;;;;;;;4.45;1.35;;;9.50;51.40;;;;;;5024023;28;20034;-53
2021/03/19 12:38:29;;;;;;;3.75;0.90;;;9.60;50.80;;;;;;5013733;28;20042;-52
2021/03/19 12:40:57;;;;;;;2.05;1.00;;;9.70;52.10;;;;;;5013644;28;20053;-55
2021/03/19 12:43:43;;;;;;;3.85;0.93;;;9.70;50.40;;;;;;5016894;28;20572;-52
2021/03/19 12:46:09;;;;;;;4.05;1.00;;;9.60;50.10;;;;;;5024838;28;20045;-55
2021/03/19 12:48:35;;;;;;;1.00;0.90;;;9.50;51.00;;;;;;5032324;28;20068;-52
2021/03/19 12:51:01;;;;;;;2.33;0.85;;;9.30;51.60;;;;;;5016625;28;20068;-52
2021/03/19 12:53:33;;;;;;;2.30;1.10;;;9.40;52.60;;;;;;5012058;28;20155;-55
2021/03/19 12:56:02;;;;;;;2.08;0.80;;;9.40;52.50;;;;;;5026656;28;20045;-53
2021/03/19 12:58:49;;;;;;;1.60;0.52;;;9.40;52.40;;;;;;5014996;28;20069;-53
2021/03/19 13:01:19;;;;;;;2.30;0.63;;;9.50;49.90;;;;;;4995066;28;20136;-55
2021/03/19 13:03:47;;;;;;;1.42;0.77;;;9.40;50.70;;;;;;5021962;28;20072;-55
2021/03/19 13:06:13;;;;;;;0.98;0.65;;;9.30;50.20;;;;;;5013257;28;20486;-55
2021/03/19 13:08:39;;;;;;;2.30;0.80;;;9.30;51.40;;;;;;4980598;28;20077;-54
2021/03/19 13:11:27;;;;;;;2.53;0.90;;;9.40;50.90;;;;;;5014863;28;20125;-55
2021/03/19 13:13:53;;;;;;;0.77;0.70;;;9.50;51.10;;;;;;5015208;28;20049;-52
2021/03/19 13:16:19;;;;;;;1.50;0.80;;;9.50;50.10;;;;;;5025244;28;20508;-53
2021/03/19 13:19:06;;;;;;;2.67;0.93;;;9.60;50.90;;;;;;5016758;28;20045;-55
2021/03/19 13:21:33;;;;;;;1.67;0.93;;;9.50;50.80;;;;;;5014432;28;20046;-54
2021/03/19 13:24:00;;;;;;;2.55;1.35;;;9.50;50.60;;;;;;5029965;28;20063;-52
2021/03/19 13:26:27;;;;;;;3.97;1.10;;;9.40;52.00;;;;;;4984235;28;20070;-56
2021/03/19 13:28:54;;;;;;;3.58;0.80;;;9.30;53.30;;;;;;5030963;28;20410;-55
2021/03/19 13:31:40;;;;;;;1.85;0.77;;;9.30;52.90;;;;;;5016080;28;20123;-55
2021/03/19 13:34:08;;;;;;;2.00;0.82;;;9.30;51.90;;;;;;5023015;28;20044;-53
2021/03/19 13:36:35;;;;;;;2.80;0.85;;;9.20;51.10;;;;;;5019193;28;20061;-54
2021/03/19 13:39:03;;;;;;;0.60;0.60;;;9.10;51.90;;;;;;5044405;28;20112;-55
2021/03/19 13:41:31;;;;;;;2.05;0.60;;;9.10;51.80;;;;;;5018983;28;20445;-55
2021/03/19 13:43:57;;;;;;;1.50;0.80;;;9.40;49.50;;;;;;5030387;28;20041;-51
2021/03/19 13:46:24;;;;;;;0.80;0.80;;;9.60;50.60;;;;;;5030683;28;20172;-54
2021/03/19 13:48:50;;;;;;;1.20;0.80;;;9.60;50.10;;;;;;5010277;28;20057;-52
2021/03/19 13:51:16;;;;;;;3.15;0.88;;;9.70;49.20;;;;;;5025289;28;20034;-54